createdAt,value
2023-05-22T00:00:40.977Z,32.57
2023-05-22T00:01:40.706Z,32.58
2023-05-22T00:02:40.769Z,32.56
2023-05-22T00:03:40.705Z,32.58
2023-05-22T00:04:40.838Z,32.64
2023-05-22T00:05:40.741Z,32.64
2023-05-22T00:06:40.671Z,32.65
2023-05-22T00:07:40.707Z,32.68
2023-05-22T00:08:40.683Z,32.68
2023-05-22T00:09:40.735Z,32.68
2023-05-22T00:10:41.015Z,32.70
2023-05-22T00:11:40.833Z,32.70
2023-05-22T00:12:40.880Z,32.69
2023-05-22T00:13:40.913Z,32.69
2023-05-22T00:14:40.967Z,32.67
2023-05-22T00:15:41.162Z,32.70
2023-05-22T00:16:41.030Z,32.71
2023-05-22T00:17:41.054Z,32.73
2023-05-22T00:18:41.037Z,32.73
2023-05-22T00:19:41.048Z,32.72
2023-05-22T00:20:41.211Z,32.71
2023-05-22T00:21:41.098Z,32.72
2023-05-22T00:22:41.187Z,32.72
2023-05-22T00:23:41.218Z,32.72
2023-05-22T00:24:41.261Z,32.73
2023-05-22T00:25:41.332Z,32.76
2023-05-22T00:26:41.325Z,32.74
2023-05-22T00:27:41.395Z,32.76
2023-05-22T00:28:41.456Z,32.77
2023-05-22T00:29:41.490Z,32.75
2023-05-22T00:30:41.725Z,32.79
2023-05-22T00:31:41.550Z,32.79
2023-05-22T00:32:41.612Z,32.80
2023-05-22T00:33:41.644Z,32.79
2023-05-22T00:34:41.753Z,32.75
2023-05-22T00:35:41.711Z,32.75
2023-05-22T00:36:41.776Z,32.76
2023-05-22T00:37:41.830Z,32.77
2023-05-22T00:38:41.860Z,32.74
2023-05-22T00:39:41.905Z,32.77
2023-05-22T00:40:42.108Z,32.77
2023-05-22T00:41:41.991Z,32.77
2023-05-22T00:42:42.068Z,32.78
2023-05-22T00:43:42.082Z,32.79
2023-05-22T00:44:42.141Z,32.80
2023-05-22T00:45:42.150Z,32.84
2023-05-22T00:46:42.189Z,32.81
2023-05-22T00:47:42.195Z,32.77
2023-05-22T00:48:42.189Z,32.78
2023-05-22T00:49:42.200Z,32.76
2023-05-22T00:50:42.244Z,32.76
2023-05-22T00:51:42.296Z,32.75
2023-05-22T00:52:42.322Z,32.75
2023-05-22T00:53:42.381Z,32.79
2023-05-22T00:54:42.423Z,32.81
2023-05-22T00:55:42.474Z,32.80
2023-05-22T00:56:42.506Z,32.81
2023-05-22T00:57:42.575Z,32.84
2023-05-22T00:58:42.580Z,32.85
2023-05-22T00:59:42.630Z,32.84
2023-05-22T01:00:42.678Z,32.83
2023-05-22T01:01:42.762Z,32.84
2023-05-22T01:02:42.949Z,32.84
2023-05-22T01:03:42.860Z,32.84
2023-05-22T01:04:42.850Z,32.83
2023-05-22T01:05:42.885Z,32.83
2023-05-22T01:06:42.911Z,32.83
2023-05-22T01:07:42.922Z,32.82
2023-05-22T01:08:42.940Z,32.83
2023-05-22T01:09:42.967Z,32.80
2023-05-22T01:10:43.071Z,32.80
2023-05-22T01:11:43.086Z,32.84
2023-05-22T01:12:43.143Z,32.83
2023-05-22T01:13:43.172Z,32.85
2023-05-22T01:14:43.205Z,32.86
2023-05-22T01:15:43.271Z,32.88
2023-05-22T01:16:43.326Z,32.88
2023-05-22T01:17:43.351Z,32.88
2023-05-22T01:18:43.493Z,32.88
2023-05-22T01:19:43.363Z,32.90
2023-05-22T01:20:43.412Z,32.88
2023-05-22T01:21:43.434Z,32.89
2023-05-22T01:22:43.470Z,32.90
2023-05-22T01:23:43.512Z,32.88
2023-05-22T01:24:43.632Z,32.92
2023-05-22T01:25:43.563Z,32.88
2023-05-22T01:26:43.606Z,32.88
2023-05-22T01:27:43.635Z,32.87
2023-05-22T01:28:43.672Z,32.88
2023-05-22T01:29:43.723Z,32.88
2023-05-22T01:30:43.760Z,32.89
2023-05-22T01:31:43.785Z,32.91
2023-05-22T01:32:43.920Z,32.90
2023-05-22T01:33:43.961Z,32.87
2023-05-22T01:34:43.915Z,32.93
2023-05-22T01:35:43.940Z,32.91
2023-05-22T01:36:43.962Z,32.95
2023-05-22T01:37:44.002Z,32.93
2023-05-22T01:38:44.023Z,32.97
2023-05-22T01:39:44.109Z,32.97
2023-05-22T01:40:44.052Z,32.97
2023-05-22T01:41:44.079Z,32.97
2023-05-22T01:42:44.139Z,32.96
2023-05-22T01:43:44.158Z,33.00
2023-05-22T01:44:44.254Z,32.97
2023-05-22T01:45:44.312Z,32.98
2023-05-22T01:46:44.279Z,32.97
2023-05-22T01:47:44.363Z,32.97
2023-05-22T01:48:44.309Z,32.97
2023-05-22T01:49:44.331Z,32.95
2023-05-22T01:50:44.345Z,32.97
2023-05-22T01:51:44.390Z,33.00
2023-05-22T01:52:44.423Z,32.97
2023-05-22T01:53:44.426Z,32.99
2023-05-22T01:54:44.453Z,32.97
2023-05-22T01:55:44.481Z,32.96
2023-05-22T01:56:44.533Z,32.97
2023-05-22T01:57:44.651Z,32.95
2023-05-22T01:58:44.595Z,32.97
2023-05-22T01:59:44.606Z,32.95
2023-05-22T02:00:44.668Z,32.95
2023-05-22T02:01:44.789Z,32.97
2023-05-22T02:02:44.817Z,32.97
2023-05-22T02:03:44.828Z,32.98
2023-05-22T02:04:44.811Z,33.00
2023-05-22T02:05:44.811Z,32.98
2023-05-22T02:06:44.852Z,32.98
2023-05-22T02:07:44.873Z,32.99
2023-05-22T02:08:45.055Z,33.00
2023-05-22T02:09:44.961Z,32.99
2023-05-22T02:10:44.971Z,32.99
2023-05-22T02:11:45.014Z,32.99
2023-05-22T02:12:45.066Z,32.97
2023-05-22T02:13:45.081Z,33.01
2023-05-22T02:14:45.100Z,33.02
2023-05-22T02:15:45.189Z,33.01
2023-05-22T02:16:45.163Z,33.03
2023-05-22T02:17:45.258Z,33.03
2023-05-22T02:18:45.270Z,33.04
2023-05-22T02:19:45.266Z,33.02
2023-05-22T02:20:45.298Z,32.98
2023-05-22T02:21:45.405Z,32.98
2023-05-22T02:22:45.367Z,33.00
2023-05-22T02:23:45.393Z,33.02
2023-05-22T02:24:45.447Z,32.99
2023-05-22T02:25:45.455Z,32.97
2023-05-22T02:26:45.503Z,32.97
2023-05-22T02:27:45.573Z,32.96
2023-05-22T02:28:45.584Z,33.01
2023-05-22T02:29:45.634Z,33.02
2023-05-22T02:30:45.642Z,33.02
2023-05-22T02:31:45.809Z,33.02
2023-05-22T02:32:45.777Z,33.01
2023-05-22T02:33:45.767Z,33.04
2023-05-22T02:34:45.802Z,33.01
2023-05-22T02:35:45.864Z,33.03
2023-05-22T02:36:45.885Z,33.02
2023-05-22T02:37:45.900Z,33.02
2023-05-22T02:38:45.941Z,33.05
2023-05-22T02:39:45.970Z,33.04
2023-05-22T02:40:46.006Z,33.07
2023-05-22T02:41:46.009Z,33.06
2023-05-22T02:42:46.062Z,33.04
2023-05-22T02:43:46.134Z,33.07
2023-05-22T02:44:46.102Z,33.04
2023-05-22T02:45:46.141Z,33.06
2023-05-22T02:46:46.229Z,33.03
2023-05-22T02:47:46.254Z,33.04
2023-05-22T02:48:46.275Z,33.07
2023-05-22T02:49:46.287Z,33.04
2023-05-22T02:50:46.336Z,33.05
2023-05-22T02:51:46.379Z,33.07
2023-05-22T02:52:46.449Z,33.03
2023-05-22T02:53:46.427Z,33.06
2023-05-22T02:54:46.439Z,33.06
2023-05-22T02:55:46.457Z,33.07
2023-05-22T02:56:46.487Z,33.06
2023-05-22T02:57:46.534Z,33.03
2023-05-22T02:58:46.553Z,33.06
2023-05-22T02:59:46.600Z,33.05
2023-05-22T03:00:46.606Z,33.06
2023-05-22T03:01:46.691Z,33.05
2023-05-22T03:02:46.716Z,33.06
2023-05-22T03:03:46.797Z,33.07
2023-05-22T03:04:46.763Z,33.08
2023-05-22T03:05:46.799Z,33.07
2023-05-22T03:06:46.915Z,33.08
2023-05-22T03:07:48.841Z,33.04
2023-05-22T03:08:46.896Z,33.05
2023-05-22T03:09:46.921Z,33.07
2023-05-22T03:10:46.985Z,33.04
2023-05-22T03:11:46.970Z,33.05
2023-05-22T03:12:47.006Z,33.04
2023-05-22T03:13:47.103Z,33.06
2023-05-22T03:14:47.049Z,33.04
2023-05-22T03:15:47.103Z,33.03
2023-05-22T03:16:47.249Z,33.02
2023-05-22T03:17:47.184Z,33.02
2023-05-22T03:18:47.225Z,32.98
2023-05-22T03:19:47.199Z,32.97
2023-05-22T03:20:47.242Z,32.98
2023-05-22T03:21:47.295Z,32.95
2023-05-22T03:22:47.358Z,32.94
2023-05-22T03:23:47.398Z,32.94
2023-05-22T03:24:47.421Z,32.94
2023-05-22T03:25:47.455Z,32.96
2023-05-22T03:26:47.505Z,32.96
2023-05-22T03:27:47.553Z,32.99
2023-05-22T03:28:47.616Z,32.99
2023-05-22T03:29:47.561Z,32.99
2023-05-22T03:30:47.621Z,32.99
2023-05-22T03:31:47.651Z,33.00
2023-05-22T03:32:47.749Z,33.02
2023-05-22T03:33:47.762Z,33.02
2023-05-22T03:34:47.757Z,33.01
2023-05-22T03:35:47.834Z,33.02
2023-05-22T03:36:47.898Z,33.01
2023-05-22T03:37:47.897Z,32.99
2023-05-22T03:38:47.905Z,33.00
2023-05-22T03:39:47.946Z,33.01
2023-05-22T03:40:47.935Z,33.02
2023-05-22T03:41:47.985Z,32.98
2023-05-22T03:42:48.052Z,32.99
2023-05-22T03:43:48.014Z,32.97
2023-05-22T03:44:48.027Z,33.00
2023-05-22T03:45:48.146Z,33.00
2023-05-22T03:46:48.109Z,32.99
2023-05-22T03:47:48.200Z,32.99
2023-05-22T03:48:48.206Z,33.00
2023-05-22T03:49:48.250Z,33.00
2023-05-22T03:50:48.286Z,33.00
2023-05-22T03:51:48.306Z,32.98
2023-05-22T03:52:48.390Z,33.03
2023-05-22T03:53:48.364Z,32.99
2023-05-22T03:54:48.408Z,32.97
2023-05-22T03:55:48.437Z,33.00
2023-05-22T03:56:48.472Z,32.96
2023-05-22T03:57:48.471Z,32.96
2023-05-22T03:58:48.508Z,32.97
2023-05-22T03:59:48.542Z,32.96
2023-05-22T04:00:48.573Z,32.98
2023-05-22T04:01:48.597Z,32.97
2023-05-22T04:02:48.703Z,32.95
2023-05-22T04:03:48.683Z,32.96
2023-05-22T04:04:48.784Z,32.96
2023-05-22T04:05:48.779Z,32.96
2023-05-22T04:06:48.811Z,32.95
2023-05-22T04:07:48.886Z,32.96
2023-05-22T04:08:48.882Z,32.93
2023-05-22T04:09:48.976Z,32.93
2023-05-22T04:10:48.953Z,32.92
2023-05-22T04:11:48.981Z,32.93
2023-05-22T04:12:49.050Z,32.92
2023-05-22T04:13:49.102Z,32.92
2023-05-22T04:14:49.124Z,32.93
2023-05-22T04:15:49.199Z,32.90
2023-05-22T04:16:50.447Z,32.93
2023-05-22T04:17:49.237Z,32.91
2023-05-22T04:18:49.288Z,32.91
2023-05-22T04:19:49.274Z,32.92
2023-05-22T04:20:49.306Z,32.93
2023-05-22T04:21:49.347Z,32.93
2023-05-22T04:22:49.386Z,32.93
2023-05-22T04:23:49.402Z,32.94
2023-05-22T04:24:49.447Z,32.95
2023-05-22T04:25:49.482Z,32.92
2023-05-22T04:26:49.530Z,32.93
2023-05-22T04:27:49.550Z,32.91
2023-05-22T04:28:49.668Z,32.94
2023-05-22T04:29:49.621Z,32.91
2023-05-22T04:30:49.737Z,32.89
2023-05-22T04:31:49.658Z,32.90
2023-05-22T04:32:49.718Z,32.89
2023-05-22T04:33:49.731Z,32.84
2023-05-22T04:34:49.747Z,32.86
2023-05-22T04:35:49.795Z,32.85
2023-05-22T04:36:49.849Z,32.86
2023-05-22T04:37:49.862Z,32.88
2023-05-22T04:38:49.877Z,32.88
2023-05-22T04:39:49.929Z,32.91
2023-05-22T04:40:49.949Z,32.89
2023-05-22T04:41:50.007Z,32.92
2023-05-22T04:42:50.028Z,32.93
2023-05-22T04:43:50.062Z,32.94
2023-05-22T04:44:50.091Z,32.95
2023-05-22T04:45:50.170Z,32.93
2023-05-22T04:46:50.153Z,32.92
2023-05-22T04:47:50.195Z,32.90
2023-05-22T04:48:50.216Z,32.90
2023-05-22T04:49:50.233Z,32.90
2023-05-22T04:50:50.284Z,32.88
2023-05-22T04:51:50.326Z,32.86
2023-05-22T04:52:50.368Z,32.85
2023-05-22T04:53:50.393Z,32.84
2023-05-22T04:54:50.417Z,32.86
2023-05-22T04:55:50.479Z,32.84
2023-05-22T04:56:50.537Z,32.85
2023-05-22T04:57:50.559Z,32.84
2023-05-22T04:58:50.584Z,32.85
2023-05-22T04:59:50.615Z,32.86
2023-05-22T05:00:50.658Z,32.85
2023-05-22T05:01:50.671Z,32.84
2023-05-22T05:02:50.703Z,32.77
2023-05-22T05:03:50.718Z,32.70
2023-05-22T05:04:50.734Z,32.72
2023-05-22T05:05:50.788Z,32.68
2023-05-22T05:06:50.823Z,32.57
2023-05-22T05:07:50.870Z,32.54
2023-05-22T05:08:50.925Z,32.54
2023-05-22T05:09:51.011Z,32.51
2023-05-22T05:10:50.996Z,32.48
2023-05-22T05:11:51.022Z,32.46
2023-05-22T05:12:51.065Z,32.43
2023-05-22T05:13:51.104Z,32.43
2023-05-22T05:14:51.153Z,32.39
2023-05-22T05:15:51.183Z,32.36
2023-05-22T05:16:51.225Z,32.35
2023-05-22T05:17:51.375Z,32.34
2023-05-22T05:18:51.319Z,32.29
2023-05-22T05:19:51.273Z,32.24
2023-05-22T05:20:51.331Z,32.27
2023-05-22T05:21:51.339Z,32.27
2023-05-22T05:22:51.385Z,32.27
2023-05-22T05:23:51.390Z,32.22
2023-05-22T05:24:51.433Z,32.22
2023-05-22T05:25:51.503Z,32.24
2023-05-22T05:26:51.530Z,32.76
2023-05-22T05:27:51.849Z,33.10
2023-05-22T05:28:51.559Z,33.66
2023-05-22T05:29:51.562Z,34.81
2023-05-22T05:30:51.569Z,35.29
2023-05-22T05:31:51.637Z,35.80
2023-05-22T05:32:51.656Z,36.50
2023-05-22T05:33:51.684Z,36.23
2023-05-22T05:34:51.711Z,36.25
2023-05-22T05:35:51.750Z,36.71
2023-05-22T05:36:51.767Z,37.58
2023-05-22T05:37:51.868Z,37.90
2023-05-22T05:38:51.842Z,37.83
2023-05-22T05:39:51.890Z,37.79
2023-05-22T05:40:51.896Z,38.35
2023-05-22T05:41:51.894Z,38.06
2023-05-22T05:42:51.926Z,37.90
2023-05-22T05:43:51.997Z,37.42
2023-05-22T05:44:52.050Z,37.01
2023-05-22T05:45:52.087Z,37.06
2023-05-22T05:46:52.083Z,37.07
2023-05-22T05:47:52.174Z,37.06
2023-05-22T05:48:52.117Z,36.91
2023-05-22T05:49:52.152Z,36.85
2023-05-22T05:50:52.152Z,36.75
2023-05-22T05:51:52.170Z,37.15
2023-05-22T05:52:52.325Z,37.02
2023-05-22T05:53:52.247Z,36.99
2023-05-22T05:54:52.297Z,37.07
2023-05-22T05:55:52.330Z,36.72
2023-05-22T05:56:52.403Z,36.65
2023-05-22T05:57:52.416Z,36.75
2023-05-22T05:58:52.449Z,36.57
2023-05-22T05:59:52.879Z,36.67
2023-05-22T06:00:52.541Z,36.82
2023-05-22T06:01:52.548Z,36.87
2023-05-22T06:02:52.797Z,36.89
2023-05-22T06:03:52.775Z,36.75
2023-05-22T06:04:52.655Z,36.73
2023-05-22T06:05:52.741Z,36.80
2023-05-22T06:06:52.709Z,36.77
2023-05-22T06:07:52.694Z,36.79
2023-05-22T06:08:52.707Z,36.70
2023-05-22T06:09:52.730Z,36.83
2023-05-22T06:10:52.767Z,36.84
2023-05-22T06:11:52.782Z,36.82
2023-05-22T06:12:52.826Z,36.55
2023-05-22T06:13:52.880Z,36.63
2023-05-22T06:14:52.920Z,36.66
2023-05-22T06:15:53.014Z,36.69
2023-05-22T06:16:53.139Z,36.83
2023-05-22T06:17:53.435Z,36.85
2023-05-22T06:18:53.047Z,36.91
2023-05-22T06:19:53.051Z,37.04
2023-05-22T06:20:53.193Z,37.13
2023-05-22T06:21:53.166Z,37.12
2023-05-22T06:22:53.176Z,37.13
2023-05-22T06:23:53.257Z,37.18
2023-05-22T06:24:53.233Z,37.12
2023-05-22T06:25:53.255Z,37.18
2023-05-22T06:26:53.637Z,37.22
2023-05-22T06:27:53.478Z,37.29
2023-05-22T06:28:53.319Z,37.25
2023-05-22T06:29:53.343Z,37.25
2023-05-22T06:30:53.389Z,37.24
2023-05-22T06:31:53.950Z,37.60
2023-05-22T06:32:53.639Z,37.53
2023-05-22T06:33:53.572Z,37.30
2023-05-22T06:34:53.543Z,37.27
2023-05-22T06:35:53.540Z,37.08
2023-05-22T06:36:54.104Z,37.03
2023-05-22T06:37:53.618Z,37.13
2023-05-22T06:38:53.630Z,37.20
2023-05-22T06:39:53.658Z,37.16
2023-05-22T06:40:53.699Z,37.23
2023-05-22T06:41:53.704Z,37.21
2023-05-22T06:42:53.746Z,37.22
2023-05-22T06:43:53.742Z,37.35
2023-05-22T06:44:53.754Z,37.26
2023-05-22T06:45:53.895Z,37.22
2023-05-22T06:46:53.914Z,37.30
2023-05-22T06:47:54.026Z,37.33
2023-05-22T06:48:54.057Z,37.34
2023-05-22T06:49:53.933Z,37.20
2023-05-22T06:50:53.973Z,37.28
2023-05-22T06:51:54.459Z,37.36
2023-05-22T06:52:54.022Z,37.37
2023-05-22T06:53:53.988Z,37.30
2023-05-22T06:54:54.037Z,37.31
2023-05-22T06:55:54.139Z,37.36
2023-05-22T06:56:54.150Z,37.25
2023-05-22T06:57:54.199Z,37.28
2023-05-22T06:58:54.268Z,37.36
2023-05-22T06:59:54.305Z,37.29
2023-05-22T07:00:54.298Z,37.26
2023-05-22T07:01:54.311Z,37.20
2023-05-22T07:02:54.517Z,37.11
2023-05-22T07:03:54.364Z,37.02
2023-05-22T07:04:54.393Z,36.95
2023-05-22T07:05:54.398Z,36.87
2023-05-22T07:06:54.362Z,36.88
2023-05-22T07:07:54.411Z,36.85
2023-05-22T07:08:54.376Z,36.79
2023-05-22T07:09:54.398Z,36.81
2023-05-22T07:10:54.445Z,36.83
2023-05-22T07:11:54.532Z,36.78
2023-05-22T07:12:54.562Z,36.81
2023-05-22T07:13:54.572Z,36.80
2023-05-22T07:14:54.563Z,36.76
2023-05-22T07:15:54.556Z,36.75
2023-05-22T07:16:54.678Z,36.80
2023-05-22T07:17:54.727Z,36.70
2023-05-22T07:18:54.740Z,36.69
2023-05-22T07:19:54.835Z,36.70
2023-05-22T07:20:54.737Z,36.77
2023-05-22T07:21:54.760Z,36.71
2023-05-22T07:22:54.814Z,36.80
2023-05-22T07:23:54.817Z,36.88
2023-05-22T07:24:54.838Z,36.96
2023-05-22T07:25:54.872Z,36.92
2023-05-22T07:26:54.898Z,36.89
2023-05-22T07:27:55.410Z,37.04
2023-05-22T07:28:55.005Z,36.94
2023-05-22T07:29:55.029Z,36.99
2023-05-22T07:30:55.083Z,37.43
2023-05-22T07:31:55.146Z,37.49
2023-05-22T07:32:55.511Z,37.00
2023-05-22T07:33:55.149Z,36.88
2023-05-22T07:34:55.198Z,37.08
2023-05-22T07:35:55.226Z,37.17
2023-05-22T07:36:55.267Z,37.17
2023-05-22T07:37:55.431Z,37.27
2023-05-22T07:38:55.324Z,37.23
2023-05-22T07:39:55.416Z,37.31
2023-05-22T07:40:55.436Z,37.34
2023-05-22T07:41:57.200Z,37.27
2023-05-22T07:42:55.476Z,37.20
2023-05-22T07:43:55.500Z,37.17
2023-05-22T07:44:55.542Z,37.05
2023-05-22T07:45:55.586Z,36.94
2023-05-22T07:46:55.666Z,37.00
2023-05-22T07:47:56.456Z,36.93
2023-05-22T07:48:55.694Z,36.88
2023-05-22T07:49:55.713Z,36.87
2023-05-22T07:50:55.774Z,36.81
2023-05-22T07:51:55.754Z,36.79
2023-05-22T07:52:56.080Z,36.65
2023-05-22T07:53:55.851Z,36.61
2023-05-22T07:54:55.967Z,36.62
2023-05-22T07:55:55.908Z,36.53
2023-05-22T07:56:55.979Z,36.51
2023-05-22T07:57:56.008Z,36.46
2023-05-22T07:58:56.039Z,36.44
2023-05-22T07:59:56.443Z,36.43
2023-05-22T08:00:56.117Z,36.31
2023-05-22T08:01:57.999Z,36.25
2023-05-22T08:02:56.538Z,36.28
2023-05-22T08:03:56.390Z,36.31
2023-05-22T08:04:56.330Z,36.27
2023-05-22T08:05:56.296Z,36.35
2023-05-22T08:06:56.307Z,36.44
2023-05-22T08:07:56.366Z,36.43
2023-05-22T08:08:56.476Z,36.42
2023-05-22T08:09:56.457Z,36.42
2023-05-22T08:11:57.492Z,36.53
2023-05-22T08:12:56.491Z,36.53
2023-05-22T08:13:56.466Z,36.55
2023-05-22T08:14:56.511Z,36.55
2023-05-22T08:16:00.216Z,36.60
2023-05-22T08:16:56.545Z,36.72
2023-05-22T08:17:56.971Z,36.67
2023-05-22T08:18:56.545Z,36.70
2023-05-22T08:19:56.526Z,36.73
2023-05-22T08:20:56.449Z,37.10
2023-05-22T08:21:56.421Z,37.07
2023-05-22T08:22:56.422Z,36.90
2023-05-22T08:23:56.400Z,36.74
2023-05-22T08:24:56.434Z,36.69
2023-05-22T08:25:56.420Z,36.66
2023-05-22T08:26:56.397Z,36.64
2023-05-22T08:27:56.401Z,36.61
2023-05-22T08:28:56.386Z,36.52
2023-05-22T08:29:56.351Z,36.42
2023-05-22T08:30:56.339Z,36.32
2023-05-22T08:31:56.374Z,36.22
2023-05-22T08:32:56.389Z,35.86
2023-05-22T08:33:56.428Z,35.60
2023-05-22T08:34:56.337Z,35.38
2023-05-22T08:35:56.423Z,35.48
2023-05-22T08:36:56.404Z,35.10
2023-05-22T08:37:56.422Z,35.52
2023-05-22T08:38:56.934Z,35.80
2023-05-22T08:39:56.554Z,36.55
2023-05-22T08:40:56.583Z,36.69
2023-05-22T08:41:56.632Z,37.23
2023-05-22T08:42:56.666Z,37.04
2023-05-22T08:43:56.730Z,37.45
2023-05-22T08:44:56.764Z,37.79
2023-05-22T08:45:56.787Z,37.80
2023-05-22T08:46:56.906Z,38.16
2023-05-22T08:47:56.866Z,38.11
2023-05-22T08:48:56.951Z,38.12
2023-05-22T08:49:56.904Z,38.03
2023-05-22T08:50:56.974Z,37.97
2023-05-22T08:51:57.001Z,37.64
2023-05-22T08:52:57.436Z,37.49
2023-05-22T08:53:57.141Z,37.34
2023-05-22T08:54:57.146Z,37.57
2023-05-22T08:55:57.192Z,37.55
2023-05-22T08:56:57.747Z,37.54
2023-05-22T08:57:57.328Z,37.55
2023-05-22T08:58:58.960Z,37.51
2023-05-22T08:59:57.332Z,37.45
2023-05-22T09:00:57.382Z,37.37
2023-05-22T09:01:57.388Z,37.29
2023-05-22T09:02:57.526Z,37.32
2023-05-22T09:03:57.465Z,37.23
2023-05-22T09:04:57.463Z,37.11
2023-05-22T09:05:57.484Z,36.77
2023-05-22T09:06:57.514Z,36.79
2023-05-22T09:08:02.731Z,36.85
2023-05-22T09:08:58.513Z,36.86
2023-05-22T09:09:57.547Z,35.57
2023-05-22T09:10:57.516Z,34.68
2023-05-22T09:11:57.497Z,34.22
2023-05-22T09:12:57.491Z,34.08
2023-05-22T09:13:57.486Z,33.21
2023-05-22T09:14:57.469Z,33.60
2023-05-22T09:15:57.480Z,32.76
2023-05-22T09:16:57.535Z,32.68
2023-05-22T09:17:58.068Z,32.46
2023-05-22T09:18:57.557Z,32.42
2023-05-22T09:19:57.476Z,32.36
2023-05-22T09:20:57.491Z,32.28
2023-05-22T09:21:57.527Z,32.06
2023-05-22T09:22:57.597Z,32.16
2023-05-22T09:23:57.587Z,31.92
2023-05-22T09:24:58.922Z,31.93
2023-05-22T09:25:57.657Z,31.48
2023-05-22T09:26:57.693Z,31.83
2023-05-22T09:27:57.812Z,31.74
2023-05-22T09:28:57.860Z,31.40
2023-05-22T09:29:57.976Z,31.64
2023-05-22T09:30:57.898Z,31.51
2023-05-22T09:31:57.933Z,31.58
2023-05-22T09:32:58.001Z,31.69
2023-05-22T09:33:57.971Z,31.66
2023-05-22T09:34:57.968Z,31.69
2023-05-22T09:35:57.985Z,31.50
2023-05-22T09:36:58.033Z,31.51
2023-05-22T09:37:58.085Z,31.70
2023-05-22T09:38:58.475Z,32.11
2023-05-22T09:39:58.113Z,32.05
2023-05-22T09:40:58.148Z,32.13
2023-05-22T09:41:58.192Z,32.40
2023-05-22T09:42:58.220Z,32.55
2023-05-22T09:43:59.775Z,32.77
2023-05-22T09:44:58.304Z,32.76
2023-05-22T09:45:58.302Z,32.22
2023-05-22T09:46:58.226Z,32.46
2023-05-22T09:47:58.270Z,32.97
2023-05-22T09:48:58.471Z,33.10
2023-05-22T09:49:58.206Z,33.18
2023-05-22T09:50:58.212Z,33.29
2023-05-22T09:51:58.208Z,33.33
2023-05-22T09:52:58.193Z,33.43
2023-05-22T09:53:58.168Z,33.50
2023-05-22T09:54:58.188Z,33.56
2023-05-22T09:55:58.182Z,33.66
2023-05-22T09:56:58.154Z,33.87
2023-05-22T09:57:58.153Z,33.90
2023-05-22T09:58:58.170Z,33.99
2023-05-22T09:59:58.160Z,34.01
2023-05-22T10:00:58.157Z,33.60
2023-05-22T10:01:58.299Z,33.89
2023-05-22T10:02:58.179Z,34.20
2023-05-22T10:03:58.492Z,34.24
2023-05-22T10:04:58.078Z,34.41
2023-05-22T10:05:58.090Z,34.40
2023-05-22T10:06:58.081Z,34.40
2023-05-22T10:07:58.143Z,34.14
2023-05-22T10:08:58.096Z,33.96
2023-05-22T10:09:58.060Z,33.81
2023-05-22T10:10:58.057Z,33.70
2023-05-22T10:11:58.211Z,33.43
2023-05-22T10:12:58.050Z,33.35
2023-05-22T10:13:58.024Z,33.15
2023-05-22T10:14:58.047Z,32.98
2023-05-22T10:15:58.050Z,32.99
2023-05-22T10:16:58.111Z,32.84
2023-05-22T10:17:58.039Z,33.11
2023-05-22T10:18:58.060Z,33.11
2023-05-22T10:19:58.497Z,33.31
2023-05-22T10:20:57.991Z,33.27
2023-05-22T10:21:57.971Z,33.32
2023-05-22T10:22:57.999Z,33.22
2023-05-22T10:23:57.971Z,33.47
2023-05-22T10:24:57.978Z,33.51
2023-05-22T10:25:58.009Z,33.49
2023-05-22T10:26:57.979Z,33.76
2023-05-22T10:27:57.981Z,34.04
2023-05-22T10:28:57.936Z,33.90
2023-05-22T10:29:57.992Z,34.18
2023-05-22T10:30:57.930Z,34.45
2023-05-22T10:31:57.915Z,34.67
2023-05-22T10:32:58.166Z,34.54
2023-05-22T10:33:57.915Z,34.69
2023-05-22T10:34:57.896Z,34.95
2023-05-22T10:35:57.888Z,35.00
2023-05-22T10:37:09.522Z,35.17
2023-05-22T10:37:58.885Z,35.26
2023-05-22T10:38:57.856Z,35.32
2023-05-22T10:39:57.865Z,35.33
2023-05-22T10:40:57.839Z,35.38
2023-05-22T10:41:57.848Z,35.39
2023-05-22T10:42:57.861Z,35.22
2023-05-22T10:43:57.816Z,35.05
2023-05-22T10:44:57.815Z,35.10
2023-05-22T10:45:57.842Z,34.83
2023-05-22T10:46:57.804Z,34.55
2023-05-22T10:47:57.822Z,34.40
2023-05-22T10:48:57.892Z,34.52
2023-05-22T10:49:57.836Z,34.36
2023-05-22T10:50:59.852Z,34.19
2023-05-22T10:51:57.881Z,34.35
2023-05-22T10:52:57.882Z,34.40
2023-05-22T10:53:57.951Z,34.42
2023-05-22T10:54:57.975Z,34.56
2023-05-22T10:55:58.004Z,34.75
2023-05-22T10:56:58.024Z,34.81
2023-05-22T10:57:58.084Z,34.68
2023-05-22T10:58:58.129Z,34.76
2023-05-22T10:59:58.184Z,34.81
2023-05-22T11:00:58.193Z,34.60
2023-05-22T11:01:58.281Z,34.52
2023-05-22T11:03:06.229Z,34.43
2023-05-22T11:03:59.251Z,34.32
2023-05-22T11:04:58.329Z,34.25
2023-05-22T11:05:58.175Z,34.12
2023-05-22T11:06:58.204Z,33.96
2023-05-22T11:07:58.182Z,34.20
2023-05-22T11:08:58.157Z,34.20
2023-05-22T11:09:58.161Z,34.28
2023-05-22T11:10:58.202Z,34.71
2023-05-22T11:11:58.151Z,34.73
2023-05-22T11:12:58.152Z,34.80
2023-05-22T11:13:58.140Z,34.69
2023-05-22T11:14:58.130Z,34.49
2023-05-22T11:15:58.145Z,34.48
2023-05-22T11:16:58.167Z,34.51
2023-05-22T11:17:58.550Z,34.53
2023-05-22T11:18:58.995Z,34.50
2023-05-22T11:19:58.176Z,34.29
2023-05-22T11:20:58.239Z,34.41
2023-05-22T11:21:58.354Z,34.23
2023-05-22T11:22:58.243Z,34.28
2023-05-22T11:23:58.308Z,34.31
2023-05-22T11:24:58.313Z,34.13
2023-05-22T11:25:58.310Z,34.00
2023-05-22T11:26:58.349Z,33.92
2023-05-22T11:27:58.404Z,33.84
2023-05-22T11:28:58.442Z,33.93
2023-05-22T11:29:58.481Z,33.98
2023-05-22T11:30:58.562Z,33.94
2023-05-22T11:31:58.529Z,33.86
2023-05-22T11:32:59.125Z,33.76
2023-05-22T11:33:58.619Z,33.61
2023-05-22T11:34:58.680Z,33.44
2023-05-22T11:35:58.708Z,33.36
2023-05-22T11:36:58.853Z,33.31
2023-05-22T11:37:58.874Z,33.04
2023-05-22T11:38:58.910Z,32.84
2023-05-22T11:39:58.922Z,32.83
2023-05-22T11:40:58.925Z,33.05
2023-05-22T11:41:59.010Z,33.19
2023-05-22T11:42:58.969Z,33.29
2023-05-22T11:43:59.020Z,33.39
2023-05-22T11:44:59.013Z,33.44
2023-05-22T11:45:59.021Z,33.42
2023-05-22T11:46:59.048Z,33.26
2023-05-22T11:47:59.120Z,33.11
2023-05-22T11:48:59.084Z,32.97
2023-05-22T11:49:59.111Z,32.94
2023-05-22T11:50:59.244Z,32.92
2023-05-22T11:51:59.258Z,32.91
2023-05-22T11:52:59.366Z,32.92
2023-05-22T11:53:59.413Z,32.90
2023-05-22T11:54:59.227Z,32.90
2023-05-22T11:55:59.393Z,32.86
2023-05-22T11:56:59.289Z,32.85
2023-05-22T11:57:59.339Z,32.78
2023-05-22T11:58:59.331Z,32.79
2023-05-22T11:59:59.476Z,32.78
2023-05-22T12:00:59.419Z,32.74
2023-05-22T12:01:59.441Z,32.72
2023-05-22T12:02:59.689Z,32.66
2023-05-22T12:03:59.638Z,32.61
2023-05-22T12:04:59.517Z,32.54
2023-05-22T12:05:59.581Z,32.53
2023-05-22T12:06:59.628Z,32.47
2023-05-22T12:08:00.040Z,32.43
2023-05-22T12:08:59.720Z,32.38
2023-05-22T12:09:59.649Z,32.31
2023-05-22T12:10:59.672Z,32.29
2023-05-22T12:11:59.694Z,32.29
2023-05-22T12:12:59.710Z,32.23
2023-05-22T12:13:59.747Z,32.19
2023-05-22T12:14:59.809Z,32.15
2023-05-22T12:15:59.856Z,32.11
2023-05-22T12:16:59.875Z,32.05
2023-05-22T12:17:59.957Z,32.08
2023-05-22T12:18:59.993Z,32.02
2023-05-22T12:19:59.975Z,32.02
2023-05-22T12:21:00.036Z,31.95
2023-05-22T12:22:00.072Z,31.93
2023-05-22T12:23:00.141Z,31.85
2023-05-22T12:24:00.113Z,31.84
2023-05-22T12:25:00.206Z,31.81
2023-05-22T12:26:00.168Z,31.69
2023-05-22T12:27:00.219Z,31.69
2023-05-22T12:28:00.272Z,31.69
2023-05-22T12:29:00.308Z,31.61
2023-05-22T12:30:00.462Z,31.48
2023-05-22T12:31:00.417Z,31.48
2023-05-22T12:32:00.440Z,31.44
2023-05-22T12:33:00.458Z,31.40
2023-05-22T12:34:00.493Z,31.33
2023-05-22T12:35:00.519Z,31.27
2023-05-22T12:36:00.569Z,31.30
2023-05-22T12:37:00.608Z,31.29
2023-05-22T12:38:00.602Z,31.19
2023-05-22T12:39:00.650Z,31.14
2023-05-22T12:40:00.668Z,31.11
2023-05-22T12:41:00.796Z,31.14
2023-05-22T12:42:00.731Z,31.08
2023-05-22T12:43:00.753Z,31.04
2023-05-22T12:44:00.807Z,31.05
2023-05-22T12:45:00.935Z,31.07
2023-05-22T12:46:02.502Z,31.01
2023-05-22T12:47:00.914Z,31.01
2023-05-22T12:48:00.956Z,31.00
2023-05-22T12:49:00.957Z,30.91
2023-05-22T12:50:01.055Z,30.96
2023-05-22T12:51:01.030Z,30.93
2023-05-22T12:52:01.083Z,30.97
2023-05-22T12:53:01.111Z,30.87
2023-05-22T12:54:01.130Z,30.89